createdAt,value
2023-08-12T00:00:14.351Z,8.70
2023-08-12T00:01:14.357Z,8.90
2023-08-12T00:02:14.274Z,9.10
2023-08-12T00:03:14.385Z,9.20
2023-08-12T00:04:14.259Z,9.80
2023-08-12T00:05:14.299Z,9.00
2023-08-12T00:06:14.272Z,9.50
2023-08-12T00:07:14.294Z,10.60
2023-08-12T00:08:14.205Z,10.70
2023-08-12T00:09:14.220Z,10.60
2023-08-12T00:10:14.231Z,10.40
2023-08-12T00:11:14.195Z,11.50
2023-08-12T00:12:14.190Z,10.70
2023-08-12T00:13:14.185Z,12.00
2023-08-12T00:14:14.141Z,11.90
2023-08-12T00:15:14.165Z,11.50
2023-08-12T00:16:14.190Z,12.00
2023-08-12T00:17:14.222Z,12.70
2023-08-12T00:18:14.132Z,11.70
2023-08-12T00:19:14.122Z,12.00
2023-08-12T00:20:14.160Z,12.80
2023-08-12T00:21:14.099Z,12.00
2023-08-12T00:22:14.076Z,12.30
2023-08-12T00:23:14.080Z,12.30
2023-08-12T00:24:14.063Z,13.20
2023-08-12T00:25:14.048Z,13.60
2023-08-12T00:26:14.024Z,13.70
2023-08-12T00:27:14.162Z,14.50
2023-08-12T00:28:14.082Z,14.00
2023-08-12T00:29:14.001Z,15.90
2023-08-12T00:30:14.035Z,15.30
2023-08-12T00:31:14.021Z,15.10
2023-08-12T00:32:13.954Z,15.50
2023-08-12T00:33:13.976Z,15.70
2023-08-12T00:34:13.967Z,16.30
2023-08-12T00:35:13.943Z,17.30
2023-08-12T00:36:13.928Z,16.80
2023-08-12T00:37:14.274Z,16.60
2023-08-12T00:38:13.903Z,16.40
2023-08-12T00:39:13.922Z,16.80
2023-08-12T00:40:13.908Z,16.20
2023-08-12T00:41:13.882Z,16.90
2023-08-12T00:42:13.869Z,16.10
2023-08-12T00:43:13.899Z,16.30
2023-08-12T00:44:13.844Z,17.70
2023-08-12T00:45:13.881Z,16.20
2023-08-12T00:46:13.867Z,17.90
2023-08-12T00:47:14.253Z,17.60
2023-08-12T00:48:14.837Z,16.20
2023-08-12T00:49:13.832Z,17.30
2023-08-12T00:50:13.773Z,16.60
2023-08-12T00:51:13.770Z,18.10
2023-08-12T00:52:13.745Z,18.20
2023-08-12T00:53:13.758Z,18.50
2023-08-12T00:54:13.747Z,17.60
2023-08-12T00:55:13.747Z,15.90
2023-08-12T00:56:13.690Z,16.40
2023-08-12T00:57:13.968Z,16.60
2023-08-12T00:58:13.723Z,16.10
2023-08-12T00:59:13.704Z,18.20
2023-08-12T01:00:13.667Z,18.30
2023-08-12T01:01:13.825Z,17.70
2023-08-12T01:02:13.660Z,16.60
2023-08-12T01:03:13.680Z,18.40
2023-08-12T01:04:13.650Z,19.50
2023-08-12T01:05:13.639Z,19.00
2023-08-12T01:06:13.653Z,17.70
2023-08-12T01:07:13.773Z,18.90
2023-08-12T01:08:13.569Z,17.90
2023-08-12T01:09:13.585Z,17.40
2023-08-12T01:10:13.562Z,17.90
2023-08-12T01:11:13.562Z,18.40
2023-08-12T01:12:13.558Z,19.00
2023-08-12T01:13:13.565Z,18.20
2023-08-12T01:14:13.515Z,18.40
2023-08-12T01:15:13.517Z,17.70
2023-08-12T01:16:13.545Z,19.30
2023-08-12T01:17:13.702Z,19.90
2023-08-12T01:18:13.488Z,18.60
2023-08-12T01:19:13.511Z,20.80
2023-08-12T01:20:13.440Z,20.60
2023-08-12T01:21:13.476Z,18.80
2023-08-12T01:22:13.440Z,19.30
2023-08-12T01:23:13.445Z,20.00
2023-08-12T01:24:13.435Z,19.70
2023-08-12T01:25:13.418Z,20.10
2023-08-12T01:26:13.413Z,18.80
2023-08-12T01:27:13.871Z,16.90
2023-08-12T01:28:13.358Z,17.30
2023-08-12T01:29:13.381Z,17.50
2023-08-12T01:30:13.379Z,17.60
2023-08-12T01:31:13.413Z,18.30
2023-08-12T01:32:13.331Z,17.80
2023-08-12T01:33:13.327Z,18.30
2023-08-12T01:34:13.294Z,18.50
2023-08-12T01:35:13.318Z,18.10
2023-08-12T01:36:13.301Z,17.70
2023-08-12T01:37:13.589Z,18.20
2023-08-12T01:38:13.282Z,19.80
2023-08-12T01:39:13.263Z,19.80
2023-08-12T01:40:13.233Z,19.60
2023-08-12T01:41:13.265Z,20.70
2023-08-12T01:42:13.231Z,20.80
2023-08-12T01:43:13.214Z,22.00
2023-08-12T01:44:13.196Z,20.70
2023-08-12T01:45:13.194Z,20.10
2023-08-12T01:46:13.181Z,21.20
2023-08-12T01:47:13.482Z,20.90
2023-08-12T01:48:13.715Z,20.60
2023-08-12T01:49:13.161Z,20.20
2023-08-12T01:50:13.129Z,21.70
2023-08-12T01:51:13.134Z,20.50
2023-08-12T01:52:13.112Z,20.80
2023-08-12T01:53:13.109Z,20.70
2023-08-12T01:54:13.145Z,21.40
2023-08-12T01:55:13.110Z,21.40
2023-08-12T01:56:13.057Z,21.10
2023-08-12T01:57:13.355Z,20.60
2023-08-12T01:58:13.032Z,20.90
2023-08-12T01:59:13.046Z,21.30
2023-08-12T02:00:13.035Z,22.40
2023-08-12T02:01:13.065Z,24.40
2023-08-12T02:02:13.006Z,24.70
2023-08-12T02:03:13.128Z,24.60
2023-08-12T02:04:12.970Z,24.70
2023-08-12T02:05:12.987Z,26.30
2023-08-12T02:06:12.979Z,26.70
2023-08-12T02:07:13.288Z,26.80
2023-08-12T02:08:12.971Z,27.40
2023-08-12T02:09:12.943Z,26.60
2023-08-12T02:10:12.915Z,28.00
2023-08-12T02:11:12.929Z,27.40
2023-08-12T02:12:12.942Z,28.50
2023-08-12T02:13:12.879Z,28.80
2023-08-12T02:14:12.883Z,28.50
2023-08-12T02:15:12.888Z,29.00
2023-08-12T02:16:12.870Z,31.00
2023-08-12T02:17:13.232Z,29.20
2023-08-12T02:18:12.852Z,29.60
2023-08-12T02:19:13.345Z,30.30
2023-08-12T02:20:12.835Z,31.90
2023-08-12T02:21:12.818Z,30.70
2023-08-12T02:22:12.785Z,31.80
2023-08-12T02:23:12.820Z,31.90
2023-08-12T02:24:12.800Z,32.20
2023-08-12T02:25:12.805Z,33.00
2023-08-12T02:26:12.759Z,32.10
2023-08-12T02:27:13.041Z,33.50
2023-08-12T02:28:12.722Z,33.40
2023-08-12T02:29:12.748Z,34.30
2023-08-12T02:30:12.736Z,35.90
2023-08-12T02:31:12.728Z,37.40
2023-08-12T02:32:12.700Z,34.20
2023-08-12T02:33:12.687Z,35.70
2023-08-12T02:34:12.662Z,37.50
2023-08-12T02:35:12.670Z,36.50
2023-08-12T02:36:12.672Z,38.30
2023-08-12T02:37:12.892Z,35.60
2023-08-12T02:38:12.614Z,38.10
2023-08-12T02:39:12.635Z,40.50
2023-08-12T02:40:12.595Z,40.90
2023-08-12T02:41:12.607Z,38.50
2023-08-12T02:42:12.629Z,41.90
2023-08-12T02:43:12.583Z,42.40
2023-08-12T02:44:12.552Z,41.10
2023-08-12T02:45:12.569Z,41.90
2023-08-12T02:46:12.561Z,41.20
2023-08-12T02:47:12.820Z,42.90
2023-08-12T02:48:12.845Z,43.70
2023-08-12T02:49:12.518Z,43.80
2023-08-12T02:50:12.487Z,43.30
2023-08-12T02:51:12.508Z,44.40
2023-08-12T02:52:12.475Z,44.00
2023-08-12T02:53:12.484Z,45.40
2023-08-12T02:54:12.499Z,45.80
2023-08-12T02:55:12.486Z,46.10
2023-08-12T02:56:12.419Z,46.10
2023-08-12T02:57:12.607Z,47.90
2023-08-12T02:58:12.456Z,48.40
2023-08-12T02:59:12.418Z,49.20
2023-08-12T03:00:12.421Z,47.90
2023-08-12T03:01:12.410Z,47.20
2023-08-12T03:02:12.367Z,48.20
2023-08-12T03:03:12.410Z,51.20
2023-08-12T03:04:12.364Z,50.70
2023-08-12T03:05:12.334Z,50.00
2023-08-12T03:06:12.386Z,47.40
2023-08-12T03:07:12.498Z,49.60
2023-08-12T03:08:12.325Z,48.20
2023-08-12T03:09:12.468Z,48.30
2023-08-12T03:10:12.305Z,49.60
2023-08-12T03:11:12.266Z,49.00
2023-08-12T03:12:12.366Z,52.00
2023-08-12T03:13:12.275Z,54.60
2023-08-12T03:14:12.234Z,53.80
2023-08-12T03:15:12.262Z,55.30
2023-08-12T03:16:12.232Z,55.00
2023-08-12T03:17:12.485Z,56.80
2023-08-12T03:18:12.255Z,56.00
2023-08-12T03:19:12.201Z,58.90
2023-08-12T03:20:12.167Z,58.40
2023-08-12T03:21:12.193Z,62.20
2023-08-12T03:22:12.149Z,65.80
2023-08-12T03:23:12.158Z,66.70
2023-08-12T03:24:12.177Z,68.40
2023-08-12T03:25:12.146Z,70.90
2023-08-12T03:26:12.117Z,69.80
2023-08-12T03:27:12.346Z,69.80
2023-08-12T03:28:12.085Z,73.20
2023-08-12T03:29:12.098Z,68.00
2023-08-12T03:30:12.096Z,64.80
2023-08-12T03:31:12.089Z,63.30
2023-08-12T03:32:12.039Z,67.30
2023-08-12T03:33:12.084Z,67.60
2023-08-12T03:34:12.020Z,71.60
2023-08-12T03:35:12.039Z,70.60
2023-08-12T03:36:12.038Z,66.70
2023-08-12T03:37:12.338Z,69.30
2023-08-12T03:38:11.980Z,69.00
2023-08-12T03:39:12.008Z,66.80
2023-08-12T03:40:11.961Z,69.70
2023-08-12T03:41:11.971Z,72.20
2023-08-12T03:42:11.994Z,73.10
2023-08-12T03:43:11.948Z,70.70
2023-08-12T03:44:11.936Z,72.20
2023-08-12T03:45:11.949Z,74.50
2023-08-12T03:46:11.909Z,73.10
2023-08-12T03:47:12.234Z,72.00
2023-08-12T03:48:11.896Z,67.90
2023-08-12T03:49:11.916Z,66.60
2023-08-12T03:50:11.855Z,65.50
2023-08-12T03:51:11.872Z,64.90
2023-08-12T03:52:11.831Z,64.50
2023-08-12T03:53:11.844Z,66.30
2023-08-12T03:54:11.853Z,69.40
2023-08-12T03:55:11.830Z,72.30
2023-08-12T03:56:11.787Z,74.80
2023-08-12T03:57:12.052Z,70.90
2023-08-12T03:58:11.796Z,73.00
2023-08-12T03:59:11.778Z,76.80
2023-08-12T04:00:11.781Z,76.00
2023-08-12T04:01:11.791Z,79.80
2023-08-12T04:02:11.730Z,77.40
2023-08-12T04:03:11.817Z,75.70
2023-08-12T04:04:14.246Z,77.00
2023-08-12T04:05:11.712Z,78.80
2023-08-12T04:06:12.015Z,70.40
2023-08-12T04:07:11.973Z,69.50
2023-08-12T04:08:11.663Z,69.20
2023-08-12T04:09:11.685Z,70.30
2023-08-12T04:10:11.646Z,71.50
2023-08-12T04:11:11.646Z,68.60
2023-08-12T04:12:11.784Z,71.60
2023-08-12T04:13:11.632Z,68.10
2023-08-12T04:14:11.602Z,70.90
2023-08-12T04:15:11.611Z,75.80
2023-08-12T04:16:11.582Z,77.80
2023-08-12T04:17:11.995Z,73.30
2023-08-12T04:18:11.606Z,74.50
2023-08-12T04:19:11.578Z,69.40
2023-08-12T04:20:11.532Z,74.10
2023-08-12T04:21:11.546Z,76.50
2023-08-12T04:22:11.547Z,73.40
2023-08-12T04:23:11.522Z,71.60
2023-08-12T04:24:11.542Z,72.70
2023-08-12T04:25:11.541Z,73.30
2023-08-12T04:26:11.469Z,75.30
2023-08-12T04:27:11.991Z,73.60
2023-08-12T04:28:11.458Z,73.20
2023-08-12T04:29:11.474Z,72.20
2023-08-12T04:30:11.787Z,74.30
2023-08-12T04:31:11.539Z,73.40
2023-08-12T04:32:11.429Z,72.50
2023-08-12T04:33:11.437Z,73.30
2023-08-12T04:34:11.434Z,69.80
2023-08-12T04:35:11.485Z,75.00
2023-08-12T04:36:11.476Z,72.70
2023-08-12T04:37:11.664Z,67.80
2023-08-12T04:38:11.482Z,68.50
2023-08-12T04:39:11.382Z,66.20
2023-08-12T04:40:11.322Z,66.80
2023-08-12T04:41:11.405Z,68.00
2023-08-12T04:42:11.321Z,70.00
2023-08-12T04:43:11.322Z,66.90
2023-08-12T04:44:11.294Z,69.70
2023-08-12T04:45:11.299Z,69.40
2023-08-12T04:46:11.265Z,67.60
2023-08-12T04:47:11.751Z,65.80
2023-08-12T04:48:11.318Z,63.80
2023-08-12T04:49:11.258Z,63.20
2023-08-12T04:50:11.215Z,62.00
2023-08-12T04:51:11.254Z,59.20
2023-08-12T04:52:11.198Z,61.90
2023-08-12T04:53:11.204Z,64.20
2023-08-12T04:54:11.222Z,56.50
2023-08-12T04:55:11.192Z,52.30
2023-08-12T04:56:11.149Z,55.40
2023-08-12T04:57:11.463Z,55.10
2023-08-12T04:58:11.133Z,56.20
2023-08-12T04:59:11.141Z,57.20
2023-08-12T05:00:11.144Z,53.20
2023-08-12T05:01:11.126Z,51.40
2023-08-12T05:02:11.110Z,50.70
2023-08-12T05:03:11.153Z,52.90
2023-08-12T05:04:11.074Z,51.10
2023-08-12T05:05:11.140Z,54.00
2023-08-12T05:06:11.098Z,56.20
2023-08-12T05:07:11.073Z,56.20
2023-08-12T05:08:11.022Z,53.20
2023-08-12T05:09:11.042Z,52.30
2023-08-12T05:10:11.006Z,55.40
2023-08-12T05:11:11.126Z,51.00
2023-08-12T05:12:11.303Z,52.60
2023-08-12T05:13:10.999Z,54.30
2023-08-12T05:14:10.960Z,50.20
2023-08-12T05:15:10.989Z,50.60
2023-08-12T05:16:10.951Z,48.00
2023-08-12T05:17:10.952Z,49.30
2023-08-12T05:18:10.958Z,51.30
2023-08-12T05:19:10.932Z,54.50
2023-08-12T05:20:10.899Z,52.20
2023-08-12T05:21:10.908Z,52.40
2023-08-12T05:22:11.121Z,52.00
2023-08-12T05:23:10.886Z,48.80
2023-08-12T05:24:10.872Z,53.00
2023-08-12T05:25:10.899Z,55.20
2023-08-12T05:26:10.832Z,53.80
2023-08-12T05:27:10.846Z,53.20
2023-08-12T05:28:10.831Z,52.10
2023-08-12T05:29:10.822Z,52.60
2023-08-12T05:30:10.841Z,49.70
2023-08-12T05:31:10.812Z,47.90
2023-08-12T05:32:11.137Z,45.00
2023-08-12T05:33:10.882Z,47.00
2023-08-12T05:34:10.770Z,48.90
2023-08-12T05:35:10.762Z,51.00
2023-08-12T05:36:10.760Z,50.60
2023-08-12T05:37:10.756Z,50.20
2023-08-12T05:38:10.712Z,53.30
2023-08-12T05:39:10.727Z,48.10
2023-08-12T05:40:10.700Z,46.80
2023-08-12T05:41:10.698Z,50.00
2023-08-12T05:42:10.918Z,47.90
2023-08-12T05:43:10.694Z,47.00
2023-08-12T05:44:10.652Z,47.20
2023-08-12T05:45:10.655Z,49.80
2023-08-12T05:46:10.668Z,48.90
2023-08-12T05:47:10.641Z,48.10
2023-08-12T05:48:10.702Z,50.20
2023-08-12T05:49:10.633Z,46.90
2023-08-12T05:50:10.582Z,47.30
2023-08-12T05:51:10.617Z,43.30
2023-08-12T05:52:11.079Z,45.00
2023-08-12T05:53:10.573Z,43.50
2023-08-12T05:54:10.582Z,42.10
2023-08-12T05:55:10.585Z,42.20
2023-08-12T05:56:10.524Z,40.30
2023-08-12T05:57:10.539Z,42.10
2023-08-12T05:58:10.510Z,42.90
2023-08-12T05:59:10.510Z,45.10
2023-08-12T06:00:10.510Z,44.40
2023-08-12T06:01:10.577Z,43.10
2023-08-12T06:02:10.931Z,43.00
2023-08-12T06:03:10.507Z,44.90
2023-08-12T06:04:10.509Z,43.70
2023-08-12T06:05:10.448Z,41.10
2023-08-12T06:06:10.447Z,42.10
2023-08-12T06:07:10.447Z,42.40
2023-08-12T06:08:10.390Z,43.40
2023-08-12T06:09:10.407Z,43.70
2023-08-12T06:10:10.407Z,44.60
2023-08-12T06:11:10.388Z,43.70
2023-08-12T06:12:10.770Z,40.40
2023-08-12T06:13:10.361Z,38.30
2023-08-12T06:14:10.330Z,41.50
2023-08-12T06:15:10.353Z,39.60
2023-08-12T06:16:10.406Z,43.50
2023-08-12T06:17:10.328Z,42.90
2023-08-12T06:18:10.386Z,43.00
2023-08-12T06:19:10.306Z,42.30
2023-08-12T06:20:10.260Z,40.30
2023-08-12T06:21:10.275Z,40.70
2023-08-12T06:22:10.593Z,36.90
2023-08-12T06:23:10.251Z,29.70
2023-08-12T06:24:10.252Z,31.50
2023-08-12T06:25:10.247Z,35.80
2023-08-12T06:26:10.238Z,37.50
2023-08-12T06:27:10.259Z,34.80
2023-08-12T06:28:10.180Z,37.60
2023-08-12T06:29:10.189Z,36.60
2023-08-12T06:30:10.195Z,35.70
2023-08-12T06:31:10.233Z,35.50
2023-08-12T06:32:10.498Z,32.80
2023-08-12T06:33:10.147Z,35.30
2023-08-12T06:34:10.116Z,35.10
2023-08-12T06:35:10.159Z,35.30
2023-08-12T06:36:10.162Z,29.80
2023-08-12T06:37:10.117Z,29.50
2023-08-12T06:38:10.077Z,29.50
2023-08-12T06:39:10.089Z,25.50
2023-08-12T06:40:10.055Z,25.60
2023-08-12T06:41:10.064Z,27.10
2023-08-12T06:42:10.326Z,26.00
2023-08-12T06:43:10.049Z,24.80
2023-08-12T06:44:10.014Z,23.90
2023-08-12T06:45:10.042Z,24.20
2023-08-12T06:46:10.023Z,25.70
2023-08-12T06:47:10.004Z,26.60
2023-08-12T06:48:10.169Z,29.10
2023-08-12T06:49:09.978Z,29.20
2023-08-12T06:50:09.946Z,28.50
2023-08-12T06:51:09.961Z,26.70
2023-08-12T06:52:10.259Z,25.90
2023-08-12T06:53:09.948Z,26.50
2023-08-12T06:54:10.132Z,22.30
2023-08-12T06:55:09.916Z,22.40
2023-08-12T06:56:09.886Z,21.10
2023-08-12T06:57:09.894Z,21.20
2023-08-12T06:58:09.862Z,20.80
2023-08-12T06:59:09.874Z,18.30
2023-08-12T07:00:10.168Z,17.30
2023-08-12T07:01:10.451Z,19.10
2023-08-12T07:02:10.120Z,19.70
2023-08-12T07:03:09.896Z,20.40
2023-08-12T07:04:09.804Z,19.50
2023-08-12T07:05:09.819Z,19.30
2023-08-12T07:06:10.297Z,17.10
2023-08-12T07:07:09.819Z,18.50
2023-08-12T07:08:09.757Z,17.50
2023-08-12T07:09:09.787Z,17.80
2023-08-12T07:10:09.736Z,17.10
2023-08-12T07:11:09.750Z,15.10
2023-08-12T07:12:10.580Z,17.20
2023-08-12T07:13:09.736Z,15.30
2023-08-12T07:14:09.702Z,15.70
2023-08-12T07:15:09.728Z,15.90
2023-08-12T07:16:09.763Z,17.30
2023-08-12T07:17:09.682Z,18.90
2023-08-12T07:18:10.185Z,17.50
2023-08-12T07:19:09.641Z,15.60
2023-08-12T07:20:09.658Z,14.80
2023-08-12T07:21:09.646Z,14.40
2023-08-12T07:22:10.002Z,13.40
2023-08-12T07:23:09.602Z,14.50
2023-08-12T07:24:09.634Z,14.90
2023-08-12T07:25:09.593Z,14.20
2023-08-12T07:26:09.594Z,12.50
2023-08-12T07:27:09.572Z,11.20
2023-08-12T07:28:09.572Z,12.20
2023-08-12T07:29:09.547Z,11.10
2023-08-12T07:30:09.593Z,12.30
2023-08-12T07:31:09.531Z,11.90
2023-08-12T07:32:09.679Z,12.10
2023-08-12T07:33:09.532Z,11.40
2023-08-12T07:34:09.511Z,9.30
2023-08-12T07:35:09.506Z,8.50
2023-08-12T07:36:09.536Z,8.40
2023-08-12T07:37:09.456Z,8.80
2023-08-12T07:38:09.459Z,7.90
2023-08-12T07:39:09.429Z,7.50
2023-08-12T07:40:09.443Z,7.90
2023-08-12T07:41:09.414Z,7.80
2023-08-12T07:42:09.593Z,8.40
2023-08-12T07:43:09.395Z,7.40
2023-08-12T07:44:09.427Z,7.50
2023-08-12T07:45:09.369Z,7.00
2023-08-12T07:46:10.486Z,8.70
2023-08-12T07:47:09.342Z,8.70
2023-08-12T07:48:09.415Z,8.20
2023-08-12T07:49:09.344Z,8.70
2023-08-12T07:50:09.355Z,9.80
2023-08-12T07:51:09.305Z,10.20
2023-08-12T07:52:09.558Z,10.80
2023-08-12T07:53:09.290Z,11.20
2023-08-12T07:54:09.317Z,11.30
2023-08-12T07:55:09.257Z,12.50
2023-08-12T07:56:09.274Z,12.20
2023-08-12T07:57:09.236Z,12.90
2023-08-12T07:58:09.249Z,13.30
2023-08-12T07:59:09.214Z,13.00
2023-08-12T08:00:09.329Z,12.60
2023-08-12T08:01:09.200Z,12.10
2023-08-12T08:02:09.278Z,14.50
2023-08-12T08:03:09.263Z,12.50
2023-08-12T08:04:09.202Z,14.00
2023-08-12T08:05:09.210Z,13.70
2023-08-12T08:06:09.188Z,15.00
2023-08-12T08:07:09.144Z,15.50
2023-08-12T08:08:09.162Z,16.40
2023-08-12T08:09:09.115Z,16.80
2023-08-12T08:10:09.128Z,18.70
2023-08-12T08:11:09.092Z,17.50
2023-08-12T08:12:09.238Z,16.90
2023-08-12T08:13:09.085Z,15.20
2023-08-12T08:14:09.090Z,14.00
2023-08-12T08:15:09.046Z,14.60
2023-08-12T08:16:09.126Z,14.20
2023-08-12T08:17:09.142Z,15.50
2023-08-12T08:18:09.232Z,17.00
2023-08-12T08:19:10.233Z,17.70
2023-08-12T08:20:09.019Z,16.60
2023-08-12T08:21:08.980Z,19.00
2023-08-12T08:22:08.993Z,19.70
2023-08-12T08:23:08.966Z,19.90
2023-08-12T08:24:08.993Z,18.80
2023-08-12T08:25:08.941Z,19.70
2023-08-12T08:26:08.955Z,17.60
2023-08-12T08:27:08.917Z,19.40
2023-08-12T08:28:08.925Z,18.40
2023-08-12T08:29:08.899Z,17.20
2023-08-12T08:30:08.911Z,16.60
2023-08-12T08:31:08.924Z,20.90
2023-08-12T08:32:08.863Z,22.10
2023-08-12T08:33:08.898Z,20.30
2023-08-12T08:34:08.875Z,19.40
2023-08-12T08:35:08.895Z,15.10
2023-08-12T08:36:08.896Z,19.20
2023-08-12T08:37:08.809Z,14.30
2023-08-12T08:38:08.828Z,15.40
2023-08-12T08:39:08.937Z,12.80
2023-08-12T08:40:08.815Z,13.50
2023-08-12T08:41:08.769Z,11.80
2023-08-12T08:42:08.811Z,15.50
2023-08-12T08:43:08.761Z,15.20
2023-08-12T08:44:08.765Z,14.60
2023-08-12T08:45:08.724Z,16.60
2023-08-12T08:46:08.764Z,16.60
2023-08-12T08:47:08.704Z,13.90
2023-08-12T08:48:08.786Z,13.90
2023-08-12T08:49:08.687Z,13.10
2023-08-12T08:50:08.702Z,12.80
2023-08-12T08:51:08.665Z,11.80
2023-08-12T08:52:08.670Z,13.70
2023-08-12T08:53:08.652Z,14.00
2023-08-12T08:54:08.693Z,14.50
2023-08-12T08:55:08.794Z,11.80
2023-08-12T08:56:14.745Z,14.30
2023-08-12T08:57:14.922Z,13.90
2023-08-12T08:58:08.626Z,13.20
2023-08-12T08:59:08.582Z,11.10
2023-08-12T09:00:16.495Z,11.80
2023-08-12T09:01:08.557Z,11.70
2023-08-12T09:02:08.580Z,11.60
2023-08-12T09:03:08.593Z,9.50
2023-08-12T09:04:08.568Z,10.40
2023-08-12T09:05:08.542Z,10.10
2023-08-12T09:06:08.551Z,9.90
2023-08-12T09:07:08.494Z,9.50
2023-08-12T09:08:08.513Z,6.80
2023-08-12T09:09:08.471Z,7.00
2023-08-12T09:10:08.485Z,6.10
2023-08-12T09:11:08.453Z,7.30
2023-08-12T09:12:08.499Z,9.50
2023-08-12T09:13:08.495Z,5.70
2023-08-12T09:14:08.439Z,5.90
2023-08-12T09:15:08.412Z,7.20
2023-08-12T09:16:08.481Z,6.30
2023-08-12T09:17:08.388Z,5.30
2023-08-12T09:18:08.440Z,5.00
2023-08-12T09:19:08.366Z,5.30
2023-08-12T09:20:08.391Z,5.30
2023-08-12T09:21:08.358Z,6.20
2023-08-12T09:22:08.366Z,5.80
2023-08-12T09:23:08.325Z,5.10
2023-08-12T09:24:08.454Z,4.50
2023-08-12T09:25:08.299Z,4.50
2023-08-12T09:26:08.316Z,4.40
2023-08-12T09:27:08.278Z,4.30
2023-08-12T09:28:08.290Z,4.20
2023-08-12T09:29:08.256Z,5.50
2023-08-12T09:30:08.307Z,5.20
2023-08-12T09:31:08.235Z,5.50
2023-08-12T09:32:08.313Z,4.70
2023-08-12T09:33:08.423Z,5.40
2023-08-12T09:34:08.234Z,4.80
2023-08-12T09:35:08.197Z,3.60
2023-08-12T09:36:08.242Z,3.90
2023-08-12T09:37:08.173Z,3.80
2023-08-12T09:38:08.195Z,4.40
2023-08-12T09:39:08.153Z,3.20
2023-08-12T09:40:08.181Z,3.50
2023-08-12T09:41:08.134Z,3.70
2023-08-12T09:42:08.192Z,3.40
2023-08-12T09:43:08.118Z,3.20
2023-08-12T09:44:08.134Z,3.20
2023-08-12T09:45:08.100Z,2.50
2023-08-12T09:46:08.134Z,2.60
2023-08-12T09:47:08.067Z,2.60
2023-08-12T09:48:08.111Z,2.50
2023-08-12T09:49:08.047Z,2.70
2023-08-12T09:50:08.062Z,2.40
2023-08-12T09:51:08.021Z,2.30
2023-08-12T09:52:08.072Z,2.20
2023-08-12T09:53:08.024Z,2.20
2023-08-12T09:54:08.042Z,2.20
2023-08-12T09:55:07.981Z,2.50
2023-08-12T09:56:07.997Z,2.50
2023-08-12T09:57:07.972Z,3.00
2023-08-12T09:58:07.976Z,2.40
2023-08-12T09:59:07.941Z,2.70
2023-08-12T10:00:07.973Z,2.30
2023-08-12T10:01:07.938Z,2.40
2023-08-12T10:02:07.931Z,2.60
2023-08-12T10:03:07.926Z,2.70
2023-08-12T10:04:07.917Z,2.60
2023-08-12T10:05:07.877Z,3.00
2023-08-12T10:06:07.923Z,2.80
2023-08-12T10:07:07.853Z,3.10
2023-08-12T10:08:07.867Z,3.40
2023-08-12T10:09:07.833Z,2.60
2023-08-12T10:10:07.887Z,2.60
2023-08-12T10:11:13.334Z,2.70
2023-08-12T10:12:07.917Z,2.60
2023-08-12T10:13:07.791Z,2.40
2023-08-12T10:14:07.802Z,2.30
2023-08-12T10:15:07.796Z,2.20
2023-08-12T10:16:07.818Z,2.40
2023-08-12T10:17:07.750Z,2.40
2023-08-12T10:18:11.461Z,2.40
2023-08-12T10:19:07.726Z,2.20
2023-08-12T10:20:07.736Z,2.30
2023-08-12T10:21:07.717Z,2.10
2023-08-12T10:22:07.719Z,2.00
2023-08-12T10:23:07.683Z,3.90
2023-08-12T10:24:07.717Z,2.70
2023-08-12T10:25:07.665Z,2.00
2023-08-12T10:26:07.726Z,2.20
2023-08-12T10:27:07.641Z,2.30
2023-08-12T10:28:07.666Z,2.20
2023-08-12T10:29:07.624Z,2.00
2023-08-12T10:30:07.648Z,2.30
2023-08-12T10:31:07.665Z,2.10
2023-08-12T10:32:07.613Z,2.70
2023-08-12T10:33:07.575Z,2.20
2023-08-12T10:34:07.587Z,2.40
2023-08-12T10:35:07.553Z,2.50
2023-08-12T10:36:07.605Z,2.20
2023-08-12T10:37:07.541Z,2.00
2023-08-12T10:38:07.569Z,2.20
2023-08-12T10:39:07.517Z,1.80
2023-08-12T10:40:07.526Z,1.90
2023-08-12T10:41:07.489Z,1.90
2023-08-12T10:42:07.530Z,1.80
2023-08-12T10:43:07.612Z,2.00
2023-08-12T10:44:07.485Z,1.90
2023-08-12T10:45:07.451Z,1.70
2023-08-12T10:46:07.463Z,1.90
2023-08-12T10:47:07.478Z,1.80
2023-08-12T10:48:07.482Z,1.60
2023-08-12T10:49:07.431Z,1.70
2023-08-12T10:50:07.421Z,1.80
2023-08-12T10:51:07.381Z,1.90
2023-08-12T10:52:07.402Z,1.60
2023-08-12T10:53:07.361Z,1.90
2023-08-12T10:54:07.420Z,1.70
2023-08-12T10:55:07.340Z,1.50
2023-08-12T10:56:07.355Z,1.70
2023-08-12T10:57:07.321Z,1.70
2023-08-12T10:58:07.371Z,1.80
2023-08-12T10:59:07.298Z,1.70
2023-08-12T11:00:07.346Z,1.70
2023-08-12T11:01:07.313Z,1.60
2023-08-12T11:02:07.319Z,1.70
2023-08-12T11:03:07.277Z,1.70
2023-08-12T11:04:07.322Z,1.80
2023-08-12T11:05:07.250Z,1.80
2023-08-12T11:06:07.275Z,1.70
2023-08-12T11:07:07.215Z,1.90
2023-08-12T11:08:07.542Z,1.90
2023-08-12T11:09:07.194Z,1.90
2023-08-12T11:10:07.232Z,1.60
2023-08-12T11:11:07.173Z,1.70
2023-08-12T11:12:07.210Z,1.80
2023-08-12T11:13:07.157Z,1.80
2023-08-12T11:14:07.168Z,1.80
2023-08-12T11:15:07.140Z,1.90
2023-08-12T11:16:07.158Z,2.00
2023-08-12T11:17:07.107Z,1.90
2023-08-12T11:18:07.226Z,1.80
2023-08-12T11:19:07.091Z,1.90
2023-08-12T11:20:07.526Z,1.80
2023-08-12T11:21:07.089Z,1.70
2023-08-12T11:22:07.078Z,1.70
2023-08-12T11:23:07.052Z,1.80
2023-08-12T11:24:07.106Z,1.60
2023-08-12T11:25:07.027Z,1.80
2023-08-12T11:26:07.045Z,1.70
2023-08-12T11:27:07.261Z,1.60
2023-08-12T11:28:07.036Z,1.60
2023-08-12T11:29:06.982Z,1.60
2023-08-12T11:30:07.026Z,1.70
2023-08-12T11:31:07.043Z,1.80
2023-08-12T11:32:06.975Z,1.80
2023-08-12T11:33:07.023Z,2.00
2023-08-12T11:34:06.950Z,1.90
2023-08-12T11:35:06.992Z,1.90
2023-08-12T11:36:06.984Z,1.70
2023-08-12T11:37:07.010Z,1.70
2023-08-12T11:38:06.916Z,1.80
2023-08-12T11:39:06.904Z,1.90
2023-08-12T11:40:06.874Z,1.90
2023-08-12T11:41:06.896Z,1.90
2023-08-12T11:42:06.874Z,1.80
2023-08-12T11:43:07.361Z,1.80
2023-08-12T11:44:06.822Z,1.70
2023-08-12T11:45:06.845Z,1.80
2023-08-12T11:46:06.888Z,1.70
2023-08-12T11:47:06.812Z,1.80
2023-08-12T11:48:06.826Z,1.80
2023-08-12T11:49:06.938Z,1.70
2023-08-12T11:50:06.758Z,1.90
2023-08-12T11:51:06.794Z,1.90
2023-08-12T11:52:06.741Z,1.60
2023-08-12T11:53:06.746Z,1.90
2023-08-12T11:54:06.750Z,1.80
2023-08-12T11:55:06.759Z,1.80
2023-08-12T11:56:06.714Z,1.70
2023-08-12T11:57:06.706Z,1.70
2023-08-12T11:58:06.669Z,2.10
2023-08-12T11:59:06.685Z,2.00
2023-08-12T12:00:06.680Z,2.00
2023-08-12T12:01:06.681Z,2.00
2023-08-12T12:02:06.633Z,1.80
2023-08-12T12:03:06.726Z,1.70
2023-08-12T12:04:06.685Z,1.80
2023-08-12T12:05:06.630Z,1.90
2023-08-12T12:06:06.607Z,1.90
2023-08-12T12:07:06.606Z,2.00
2023-08-12T12:08:06.614Z,1.80
2023-08-12T12:09:06.666Z,1.80
2023-08-12T12:10:06.568Z,2.00
2023-08-12T12:11:06.560Z,1.90
2023-08-12T12:12:06.572Z,2.00
2023-08-12T12:13:06.558Z,2.10
2023-08-12T12:14:06.509Z,2.00
2023-08-12T12:15:06.528Z,2.10
2023-08-12T12:16:06.556Z,1.90
2023-08-12T12:17:06.494Z,2.00
2023-08-12T12:18:07.715Z,2.10
2023-08-12T12:19:06.721Z,2.20
2023-08-12T12:20:06.434Z,2.20
2023-08-12T12:21:06.452Z,2.10
2023-08-12T12:22:06.467Z,2.20
2023-08-12T12:23:06.437Z,2.20
2023-08-12T12:24:06.418Z,2.00
2023-08-12T12:25:06.436Z,2.20
2023-08-12T12:26:06.442Z,2.30
2023-08-12T12:27:06.389Z,2.10
2023-08-12T12:28:06.354Z,2.40
2023-08-12T12:29:06.378Z,2.40
2023-08-12T12:30:06.369Z,2.70
2023-08-12T12:31:06.400Z,3.20
2023-08-12T12:32:06.310Z,4.90
2023-08-12T12:33:06.328Z,4.70
2023-08-12T12:34:06.291Z,7.80
2023-08-12T12:35:06.305Z,7.40
2023-08-12T12:36:06.304Z,8.60
2023-08-12T12:37:06.301Z,10.50
2023-08-12T12:38:06.251Z,9.50
2023-08-12T12:39:06.268Z,9.10
2023-08-12T12:40:06.235Z,12.10
2023-08-12T12:41:06.238Z,10.20
2023-08-12T12:42:06.256Z,9.70
2023-08-12T12:43:06.213Z,10.80
2023-08-12T12:44:06.187Z,11.40
2023-08-12T12:45:06.402Z,10.30
2023-08-12T12:46:06.259Z,12.20
2023-08-12T12:47:06.199Z,13.10
2023-08-12T12:48:06.231Z,10.60
2023-08-12T12:49:06.156Z,11.70
2023-08-12T12:50:06.122Z,11.60
2023-08-12T12:51:06.130Z,14.40
2023-08-12T12:52:06.098Z,15.70
2023-08-12T12:53:06.123Z,14.10
2023-08-12T12:54:06.128Z,15.90
2023-08-12T12:55:06.085Z,14.20
2023-08-12T12:56:06.242Z,18.70
2023-08-12T12:57:06.070Z,22.20
2023-08-12T12:58:06.092Z,24.00
2023-08-12T12:59:06.053Z,19.60
2023-08-12T13:00:06.316Z,13.20